Time;durP1;ratioP1;P1;durP2;ratioP2;P2;SDS_P1;SDS_P2;PMS_P1;PMS_P2;Temp;Humidity;BMP_temperature;BMP_pressure;BME280_temperature;BME280_humidity;BME280_pressure;Samples;Min_cycle;Max_cycle;Signal;HPM_P1;HPM_P2
2021/08/18 00:00:31;;;;;;;2.08;0.20;;;23.50;52.10;;;;;;5018597;28;20033;-61
2021/08/18 00:02:58;;;;;;;1.95;0.88;;;23.50;52.10;;;;;;5022167;28;20037;-60
2021/08/18 00:05:25;;;;;;;1.20;0.20;;;23.50;52.10;;;;;;5024140;28;20164;-60
2021/08/18 00:07:54;;;;;;;1.35;0.30;;;23.40;52.20;;;;;;5026789;28;20039;-61
2021/08/18 00:10:21;;;;;;;2.17;0.30;;;23.40;52.20;;;;;;5020654;28;20042;-62
2021/08/18 00:12:48;;;;;;;3.08;1.00;;;23.40;52.20;;;;;;5015768;28;20045;-62
2021/08/18 00:15:16;;;;;;;2.50;0.88;;;23.40;52.30;;;;;;5011401;28;20050;-62
2021/08/18 00:17:44;;;;;;;3.47;0.40;;;23.40;52.30;;;;;;5010116;28;20400;-61
2021/08/18 00:20:12;;;;;;;2.53;0.38;;;23.40;52.40;;;;;;5027258;28;20148;-62
2021/08/18 00:22:40;;;;;;;2.85;0.30;;;23.30;52.50;;;;;;5016309;28;20407;-62
2021/08/18 00:25:09;;;;;;;3.38;0.32;;;23.30;52.60;;;;;;5026124;28;20033;-62
2021/08/18 00:27:36;;;;;;;4.40;0.45;;;23.30;52.70;;;;;;5018680;28;20578;-62
2021/08/18 00:30:04;;;;;;;0.40;0.28;;;23.20;52.60;;;;;;5011643;28;20108;-62
2021/08/18 00:32:31;;;;;;;1.70;0.20;;;23.20;52.70;;;;;;5014427;28;20526;-62
2021/08/18 00:34:58;;;;;;;0.98;0.40;;;23.20;52.70;;;;;;5019202;28;20038;-61
2021/08/18 00:37:25;;;;;;;1.52;0.40;;;23.20;52.90;;;;;;5025320;28;20128;-62
2021/08/18 00:39:52;;;;;;;1.35;0.30;;;23.30;53.10;;;;;;5016225;28;20038;-61
2021/08/18 00:42:21;;;;;;;2.75;0.40;;;23.40;52.90;;;;;;5011903;28;20431;-59
2021/08/18 00:44:48;;;;;;;5.43;1.85;;;23.40;52.60;;;;;;5011222;28;20041;-60
2021/08/18 00:47:15;;;;;;;2.15;0.20;;;23.50;52.30;;;;;;5008809;28;20585;-58
2021/08/18 00:49:43;;;;;;;2.25;0.30;;;23.60;52.10;;;;;;5011456;28;20418;-61
2021/08/18 00:52:10;;;;;;;1.23;0.20;;;23.60;51.90;;;;;;5014946;28;20046;-60
2021/08/18 00:54:37;;;;;;;3.08;0.30;;;23.60;51.90;;;;;;5015399;28;20037;-61
2021/08/18 00:57:06;;;;;;;2.70;0.28;;;23.60;52.40;;;;;;5014393;28;20126;-60
2021/08/18 00:59:35;;;;;;;5.43;0.80;;;23.50;51.90;;;;;;5013879;28;20049;-59
2021/08/18 01:02:04;;;;;;;3.47;0.95;;;23.50;52.00;;;;;;5016468;28;20050;-61
2021/08/18 01:04:32;;;;;;;2.05;0.30;;;23.40;52.00;;;;;;5014639;28;20069;-62
2021/08/18 01:06:59;;;;;;;1.38;0.32;;;23.40;52.00;;;;;;5014711;28;20042;-62
2021/08/18 01:09:26;;;;;;;2.35;0.30;;;23.40;52.10;;;;;;5015033;28;20124;-60
2021/08/18 01:11:53;;;;;;;1.02;0.28;;;23.40;52.10;;;;;;5028331;28;20768;-60
2021/08/18 01:14:21;;;;;;;2.97;0.20;;;23.40;52.10;;;;;;5012948;28;20058;-60
2021/08/18 01:16:50;;;;;;;2.17;0.40;;;23.30;52.10;;;;;;5016333;28;20128;-58
2021/08/18 01:19:18;;;;;;;1.30;0.20;;;23.30;52.20;;;;;;5022321;28;20048;-60
2021/08/18 01:21:47;;;;;;;5.35;0.20;;;23.30;52.20;;;;;;5019582;28;20052;-59
2021/08/18 01:24:15;;;;;;;2.30;0.52;;;23.30;52.20;;;;;;5013322;28;20046;-60
2021/08/18 01:26:42;;;;;;;1.13;0.40;;;23.20;52.10;;;;;;5029552;28;20033;-61
2021/08/18 01:29:11;;;;;;;5.75;0.43;;;23.20;52.20;;;;;;5011442;28;20423;-61
2021/08/18 01:31:38;;;;;;;2.28;0.30;;;23.20;52.20;;;;;;5011562;28;20065;-61
2021/08/18 01:34:06;;;;;;;4.53;1.48;;;23.20;52.20;;;;;;5010461;28;20057;-59
2021/08/18 01:36:34;;;;;;;4.03;0.40;;;23.10;52.20;;;;;;5015620;28;20388;-59
2021/08/18 01:39:02;;;;;;;2.83;0.28;;;23.10;52.30;;;;;;5026741;28;20034;-59
2021/08/18 01:41:29;;;;;;;2.60;0.20;;;23.10;52.30;;;;;;5013688;28;20056;-59
2021/08/18 01:43:56;;;;;;;2.42;0.47;;;23.10;52.30;;;;;;5012456;28;20054;-59
2021/08/18 01:46:25;;;;;;;1.73;0.20;;;23.10;52.40;;;;;;5022145;28;20052;-61
2021/08/18 01:48:52;;;;;;;0.43;0.30;;;23.10;52.40;;;;;;5019323;28;20038;-59
2021/08/18 01:51:19;;;;;;;3.80;0.30;;;23.10;52.40;;;;;;5013890;28;20053;-60
2021/08/18 01:53:48;;;;;;;3.38;0.20;;;23.00;52.40;;;;;;5014114;28;20056;-59
2021/08/18 01:56:17;;;;;;;4.22;0.68;;;23.00;52.50;;;;;;5010989;28;20048;-60
2021/08/18 01:58:45;;;;;;;3.90;0.28;;;23.00;52.50;;;;;;5013509;28;20046;-59
2021/08/18 02:01:14;;;;;;;2.13;0.28;;;23.00;52.50;;;;;;5013658;28;20042;-59
2021/08/18 02:03:43;;;;;;;7.88;0.73;;;23.00;52.70;;;;;;5013294;28;20513;-60
2021/08/18 02:06:11;;;;;;;1.08;0.10;;;22.90;52.60;;;;;;5012956;28;20038;-60
2021/08/18 02:08:38;;;;;;;5.05;0.25;;;22.90;52.60;;;;;;5013369;28;20135;-59
2021/08/18 02:11:05;;;;;;;3.60;0.30;;;22.90;52.70;;;;;;5028132;28;20052;-55
2021/08/18 02:13:33;;;;;;;2.13;0.30;;;22.90;52.70;;;;;;5009932;28;20050;-57
2021/08/18 02:16:00;;;;;;;3.55;0.50;;;22.90;52.70;;;;;;5010803;28;20050;-57
2021/08/18 02:18:27;;;;;;;3.08;0.30;;;22.90;52.80;;;;;;5013219;28;20042;-58
2021/08/18 02:20:56;;;;;;;2.05;0.20;;;22.80;52.90;;;;;;5024059;28;20050;-57
2021/08/18 02:23:23;;;;;;;4.05;0.30;;;22.80;53.00;;;;;;5027018;28;20045;-58
2021/08/18 02:25:51;;;;;;;4.07;0.52;;;22.80;53.00;;;;;;5012290;28;20128;-56
2021/08/18 02:28:18;;;;;;;2.15;0.28;;;22.80;53.10;;;;;;5012655;28;20124;-57
2021/08/18 02:30:45;;;;;;;2.17;0.22;;;22.80;53.10;;;;;;5012714;28;20046;-58
2021/08/18 02:33:13;;;;;;;3.30;0.73;;;22.80;53.20;;;;;;5011429;28;20052;-58
2021/08/18 02:35:40;;;;;;;2.40;0.30;;;22.80;53.20;;;;;;5027978;28;20037;-58
2021/08/18 02:38:09;;;;;;;4.78;0.30;;;22.70;53.20;;;;;;5010304;28;20041;-56
2021/08/18 02:40:36;;;;;;;2.45;0.20;;;22.70;53.20;;;;;;5023021;28;20137;-59
2021/08/18 02:43:04;;;;;;;3.83;0.40;;;22.70;53.30;;;;;;5016266;28;20488;-58
2021/08/18 02:45:31;;;;;;;4.30;0.20;;;22.70;53.40;;;;;;5012998;28;20046;-60
2021/08/18 02:47:59;;;;;;;0.50;0.35;;;22.70;53.40;;;;;;5013208;28;20435;-60
2021/08/18 02:50:27;;;;;;;2.50;0.40;;;22.70;53.50;;;;;;5011240;28;20044;-61
2021/08/18 02:52:54;;;;;;;1.65;0.63;;;22.60;53.40;;;;;;5011510;28;20507;-60
2021/08/18 02:55:23;;;;;;;1.15;0.20;;;22.60;53.50;;;;;;5012349;28;20073;-60
2021/08/18 02:57:50;;;;;;;1.00;0.57;;;22.60;53.60;;;;;;5013131;28;20129;-61
2021/08/18 03:00:18;;;;;;;2.60;0.68;;;22.60;53.60;;;;;;5013262;28;20085;-60
2021/08/18 03:02:45;;;;;;;3.75;0.15;;;22.60;53.70;;;;;;5012875;28;20769;-60
2021/08/18 03:05:13;;;;;;;1.40;0.22;;;22.60;53.70;;;;;;5009910;28;20124;-59
2021/08/18 03:07:41;;;;;;;1.92;0.25;;;22.50;53.70;;;;;;5022942;28;20050;-57
2021/08/18 03:10:09;;;;;;;6.82;0.45;;;22.50;53.80;;;;;;5016121;28;20125;-58
2021/08/18 03:12:38;;;;;;;5.40;0.35;;;22.50;53.90;;;;;;5014048;28;20411;-58
2021/08/18 03:15:05;;;;;;;4.72;0.32;;;22.60;54.00;;;;;;5012197;28;20046;-59
2021/08/18 03:17:32;;;;;;;1.35;0.25;;;22.50;53.90;;;;;;5009371;28;20041;-59
2021/08/18 03:19:59;;;;;;;1.00;0.20;;;22.50;53.90;;;;;;5029278;28;20400;-61
2021/08/18 03:22:26;;;;;;;3.40;0.35;;;22.50;53.90;;;;;;5013026;28;20053;-60
2021/08/18 03:24:53;;;;;;;3.35;0.10;;;22.50;54.00;;;;;;5012769;28;20124;-60
2021/08/18 03:27:20;;;;;;;2.17;0.20;;;22.50;54.00;;;;;;5009842;28;20045;-59
2021/08/18 03:29:49;;;;;;;2.50;0.65;;;22.50;54.20;;;;;;5014390;28;20064;-60
2021/08/18 03:32:16;;;;;;;1.55;0.32;;;22.50;54.10;;;;;;5012160;28;20053;-60
2021/08/18 03:34:43;;;;;;;3.38;0.20;;;22.50;54.10;;;;;;5013840;28;20084;-60
2021/08/18 03:37:10;;;;;;;0.85;0.43;;;22.50;54.20;;;;;;5018176;28;20041;-60
2021/08/18 03:39:37;;;;;;;0.45;0.13;;;22.50;54.30;;;;;;5020767;28;20180;-60
2021/08/18 03:42:05;;;;;;;2.00;0.10;;;22.50;54.30;;;;;;5023600;28;20038;-60
2021/08/18 03:44:32;;;;;;;4.13;0.20;;;22.40;54.30;;;;;;5011399;28;20124;-59
2021/08/18 03:47:00;;;;;;;3.03;0.55;;;22.40;54.40;;;;;;5014398;28;20423;-58
2021/08/18 03:49:27;;;;;;;1.42;0.28;;;22.50;54.50;;;;;;5012225;28;20049;-59
2021/08/18 03:51:54;;;;;;;1.98;0.20;;;22.50;54.50;;;;;;5015701;28;20148;-60
2021/08/18 03:54:21;;;;;;;1.23;0.40;;;22.50;54.50;;;;;;5020250;28;20054;-60
2021/08/18 03:56:48;;;;;;;5.35;0.28;;;22.50;54.60;;;;;;5025393;28;20576;-60
2021/08/18 03:59:15;;;;;;;1.42;0.10;;;22.50;54.60;;;;;;5007941;28;20042;-59
2021/08/18 04:01:42;;;;;;;5.07;0.40;;;22.40;54.60;;;;;;5023805;28;20069;-60
2021/08/18 04:04:11;;;;;;;1.65;0.20;;;22.40;54.60;;;;;;5014776;28;20563;-60
2021/08/18 04:06:37;;;;;;;2.50;0.20;;;22.40;54.70;;;;;;5011498;28;20036;-59
2021/08/18 04:09:05;;;;;;;2.72;0.20;;;22.40;54.80;;;;;;5010116;28;20034;-60
2021/08/18 04:11:32;;;;;;;3.00;0.10;;;22.40;54.80;;;;;;5022833;28;20034;-59
2021/08/18 04:13:59;;;;;;;2.05;0.17;;;22.40;54.90;;;;;;5023708;28;20049;-59
2021/08/18 04:16:26;;;;;;;2.90;0.10;;;22.40;55.00;;;;;;5020617;28;20072;-63
2021/08/18 04:18:53;;;;;;;2.38;0.20;;;22.30;55.00;;;;;;5020658;28;20511;-63
2021/08/18 04:21:22;;;;;;;1.42;0.10;;;22.30;55.00;;;;;;5020715;28;20073;-59
2021/08/18 04:23:49;;;;;;;4.95;0.57;;;22.30;55.10;;;;;;5023491;28;20045;-59
2021/08/18 04:26:16;;;;;;;3.70;0.40;;;22.30;55.10;;;;;;5024479;28;20415;-59
2021/08/18 04:28:43;;;;;;;3.40;0.15;;;22.30;55.20;;;;;;5011109;28;20038;-59
2021/08/18 04:31:10;;;;;;;3.53;0.57;;;22.30;55.20;;;;;;5011365;28;20089;-59
2021/08/18 04:33:37;;;;;;;2.25;0.43;;;22.30;55.30;;;;;;5013198;28;20554;-59
2021/08/18 04:36:05;;;;;;;2.47;0.10;;;22.30;55.30;;;;;;5021666;28;20082;-59
2021/08/18 04:38:33;;;;;;;4.22;0.15;;;22.20;55.40;;;;;;5025261;28;20546;-59
2021/08/18 04:41:00;;;;;;;2.30;0.10;;;22.30;55.40;;;;;;5023533;28;20045;-59
2021/08/18 04:43:27;;;;;;;2.08;0.10;;;22.20;55.50;;;;;;5011866;28;20042;-59
2021/08/18 04:45:54;;;;;;;1.20;0.10;;;22.20;55.50;;;;;;5011431;28;20848;-60
2021/08/18 04:48:22;;;;;;;1.00;0.10;;;22.20;55.60;;;;;;5011272;28;20124;-59
2021/08/18 04:50:49;;;;;;;1.27;0.30;;;22.20;55.60;;;;;;5013197;28;20755;-59
2021/08/18 04:53:16;;;;;;;2.95;0.30;;;22.20;55.70;;;;;;5011208;28;20116;-60
2021/08/18 04:55:44;;;;;;;3.97;1.50;;;22.20;55.70;;;;;;5010870;28;20042;-61
2021/08/18 04:58:11;;;;;;;8.15;0.60;;;22.20;55.80;;;;;;5011098;28;20543;-60
2021/08/18 05:00:38;;;;;;;4.95;1.60;;;22.20;55.90;;;;;;5011279;28;20052;-59
2021/08/18 05:03:05;;;;;;;0.82;0.20;;;22.20;55.90;;;;;;5011298;28;20529;-59
2021/08/18 05:05:32;;;;;;;1.17;0.20;;;22.10;56.00;;;;;;5010032;28;20049;-59
2021/08/18 05:08:01;;;;;;;5.30;0.20;;;22.20;56.10;;;;;;5008921;28;20038;-59
2021/08/18 05:10:28;;;;;;;1.90;0.25;;;22.10;56.10;;;;;;5010727;28;20426;-56
2021/08/18 05:12:57;;;;;;;2.53;0.13;;;22.20;56.20;;;;;;5013014;28;20050;-55
2021/08/18 05:15:24;;;;;;;5.75;0.35;;;22.10;56.30;;;;;;5010859;28;20044;-57
2021/08/18 05:17:51;;;;;;;1.42;0.10;;;22.10;56.30;;;;;;5024692;28;20034;-56
2021/08/18 05:20:18;;;;;;;7.50;0.90;;;22.10;56.40;;;;;;5008818;28;20060;-56
2021/08/18 05:22:46;;;;;;;2.25;0.20;;;22.10;56.40;;;;;;5010115;28;20037;-56
2021/08/18 05:25:13;;;;;;;4.85;0.35;;;22.10;56.40;;;;;;5017547;28;20034;-55
2021/08/18 05:27:41;;;;;;;2.20;0.20;;;22.10;56.50;;;;;;5017980;28;20117;-57
2021/08/18 05:30:12;;;;;;;3.40;0.65;;;22.10;56.50;;;;;;5009178;28;20703;-54
2021/08/18 05:32:40;;;;;;;1.33;0.20;;;22.10;56.60;;;;;;5007342;28;20076;-57
2021/08/18 05:35:09;;;;;;;2.85;0.20;;;22.10;56.60;;;;;;5008194;28;20448;-55
2021/08/18 05:37:36;;;;;;;6.30;0.15;;;22.10;56.60;;;;;;5012933;28;20057;-61
2021/08/18 05:40:05;;;;;;;2.40;0.13;;;22.10;56.70;;;;;;5011771;28;20034;-60
2021/08/18 05:42:32;;;;;;;4.95;0.73;;;22.10;56.70;;;;;;5016287;28;20049;-59
2021/08/18 05:45:01;;;;;;;3.47;0.40;;;22.10;56.70;;;;;;5013847;28;20140;-58
2021/08/18 05:47:29;;;;;;;3.53;0.25;;;22.10;56.90;;;;;;5012842;28;20049;-58
2021/08/18 05:49:56;;;;;;;2.25;0.40;;;22.00;56.80;;;;;;5012306;28;20141;-57
2021/08/18 05:52:23;;;;;;;1.15;0.20;;;22.10;56.90;;;;;;5014009;28;20535;-59
2021/08/18 05:54:50;;;;;;;3.17;1.08;;;22.10;56.80;;;;;;5013942;28;20594;-59
2021/08/18 05:57:17;;;;;;;1.67;0.10;;;22.10;56.80;;;;;;5013892;28;20053;-60
2021/08/18 05:59:44;;;;;;;2.50;0.38;;;22.10;57.10;;;;;;5012509;28;20650;-60
2021/08/18 06:02:11;;;;;;;3.92;0.28;;;22.20;57.20;;;;;;5011407;28;20072;-60
2021/08/18 06:04:40;;;;;;;1.75;0.25;;;22.40;57.10;;;;;;5014210;28;20052;-58
2021/08/18 06:07:07;;;;;;;0.55;0.30;;;22.50;56.80;;;;;;5014154;28;20042;-57
2021/08/18 06:09:34;;;;;;;5.13;0.50;;;22.60;56.50;;;;;;5013162;28;20526;-59
2021/08/18 06:12:01;;;;;;;3.45;1.23;;;22.80;56.30;;;;;;5022801;28;20038;-54
2021/08/18 06:14:28;;;;;;;11.32;1.52;;;22.80;56.00;;;;;;5012481;28;20107;-56
2021/08/18 06:16:55;;;;;;;1.08;0.40;;;22.90;55.70;;;;;;5012280;28;20088;-57
2021/08/18 06:19:22;;;;;;;0.95;0.40;;;23.00;55.50;;;;;;5012696;28;20034;-56
2021/08/18 06:21:51;;;;;;;3.88;0.75;;;23.10;55.30;;;;;;5017174;28;20034;-56
2021/08/18 06:24:27;;;;;;;1.10;0.35;;;23.20;55.00;;;;;;5024865;28;20050;-62
2021/08/18 06:26:54;;;;;;;4.25;0.40;;;23.30;55.00;;;;;;5027536;28;20070;-59
2021/08/18 06:29:21;;;;;;;2.65;0.40;;;23.30;55.10;;;;;;5012047;28;20069;-64
2021/08/18 06:31:49;;;;;;;9.55;0.90;;;23.40;55.50;;;;;;5011050;28;20527;-62
2021/08/18 06:34:18;;;;;;;4.93;0.30;;;23.50;55.60;;;;;;5019648;28;20763;-65
2021/08/18 06:36:45;;;;;;;4.80;0.77;;;23.60;55.90;;;;;;5018682;28;20072;-60
2021/08/18 06:39:14;;;;;;;7.10;0.80;;;23.60;56.20;;;;;;5013526;28;20040;-49
2021/08/18 06:41:41;;;;;;;11.30;0.65;;;23.70;56.20;;;;;;5014927;28;20037;-50
2021/08/18 06:44:08;;;;;;;6.82;0.47;;;23.80;56.10;;;;;;5025484;28;20033;-47
2021/08/18 06:46:35;;;;;;;1.75;0.73;;;23.90;56.00;;;;;;5013893;28;20129;-45
2021/08/18 06:49:02;;;;;;;27.40;1.60;;;24.00;56.00;;;;;;5012784;28;20117;-56
2021/08/18 06:51:32;;;;;;;5.43;0.20;;;24.00;55.90;;;;;;5017983;28;20045;-54
2021/08/18 06:53:59;;;;;;;2.25;0.68;;;24.10;55.90;;;;;;5023699;28;20445;-55
2021/08/18 06:56:28;;;;;;;8.38;0.63;;;24.20;55.70;;;;;;5027325;28;20128;-55
2021/08/18 06:58:55;;;;;;;6.25;0.73;;;24.20;55.50;;;;;;5011577;28;20124;-55
2021/08/18 07:01:22;;;;;;;3.90;1.17;;;24.30;55.20;;;;;;5012495;28;20124;-53
2021/08/18 07:03:51;;;;;;;4.55;0.80;;;24.40;55.10;;;;;;5012708;28;20099;-54
2021/08/18 07:06:18;;;;;;;3.85;0.65;;;24.40;54.80;;;;;;5014700;28;20511;-53
2021/08/18 07:08:46;;;;;;;4.70;0.85;;;24.50;54.60;;;;;;5027641;28;20099;-53
2021/08/18 07:11:13;;;;;;;5.18;1.17;;;24.50;54.30;;;;;;5011580;28;20038;-55
2021/08/18 07:13:41;;;;;;;7.63;0.60;;;24.60;54.20;;;;;;5011910;28;20516;-54
2021/08/18 07:16:08;;;;;;;5.00;0.60;;;24.60;54.00;;;;;;5018306;28;20511;-51
2021/08/18 07:18:35;;;;;;;1.08;0.98;;;24.60;53.80;;;;;;5021680;28;20042;-53
2021/08/18 07:21:02;;;;;;;3.42;0.73;;;24.70;53.70;;;;;;5011556;28;20053;-49
2021/08/18 07:23:29;;;;;;;5.30;0.43;;;24.80;53.60;;;;;;5011316;28;20041;-53
2021/08/18 07:25:56;;;;;;;9.00;0.70;;;24.90;53.50;;;;;;5011219;28;20125;-55
2021/08/18 07:28:23;;;;;;;3.05;0.32;;;24.90;53.30;;;;;;5012334;28;20050;-54
2021/08/18 07:30:52;;;;;;;3.50;0.80;;;24.90;53.20;;;;;;5012531;28;20080;-53
2021/08/18 07:33:19;;;;;;;1.88;0.30;;;25.00;53.10;;;;;;5011887;28;20042;-56
2021/08/18 07:35:46;;;;;;;3.40;0.50;;;25.10;53.10;;;;;;5011799;28;20038;-53
2021/08/18 07:38:13;;;;;;;3.88;0.52;;;25.10;52.90;;;;;;5009553;28;20117;-56
2021/08/18 07:40:40;;;;;;;4.72;0.50;;;25.20;53.50;;;;;;5012723;28;20053;-54
2021/08/18 07:43:07;;;;;;;0.90;0.30;;;25.20;52.80;;;;;;5019356;28;20068;-53
2021/08/18 07:45:34;;;;;;;2.13;0.35;;;25.30;52.80;;;;;;5019808;28;20042;-55
2021/08/18 07:48:02;;;;;;;0.98;0.20;;;25.30;52.60;;;;;;5011997;28;20128;-51
2021/08/18 07:50:30;;;;;;;1.30;0.43;;;25.40;53.10;;;;;;5009941;28;20499;-53
2021/08/18 07:52:57;;;;;;;1.92;0.40;;;25.40;52.40;;;;;;5024018;28;20128;-54
2021/08/18 07:55:24;;;;;;;1.38;0.30;;;25.50;52.30;;;;;;5012912;28;20041;-55
2021/08/18 07:57:51;;;;;;;4.05;0.20;;;25.50;52.10;;;;;;5015551;28;20045;-54
2021/08/18 08:00:19;;;;;;;4.15;0.28;;;25.60;52.00;;;;;;5021397;28;20037;-53
2021/08/18 08:02:46;;;;;;;2.33;0.40;;;25.60;51.90;;;;;;5012393;28;20041;-56
2021/08/18 08:05:16;;;;;;;7.97;0.40;;;25.60;51.80;;;;;;5009132;28;20419;-53
2021/08/18 08:07:43;;;;;;;1.33;0.10;;;25.70;51.60;;;;;;5013350;28;20136;-56
2021/08/18 08:10:12;;;;;;;1.10;0.20;;;25.70;51.50;;;;;;5012270;28;20045;-56
2021/08/18 08:12:39;;;;;;;0.73;0.43;;;25.80;51.40;;;;;;5013431;28;20050;-52
2021/08/18 08:15:09;;;;;;;3.22;0.32;;;25.80;51.30;;;;;;5011764;28;20120;-51
2021/08/18 08:17:36;;;;;;;0.65;0.35;;;25.80;51.10;;;;;;5011489;28;20029;-53
2021/08/18 08:20:04;;;;;;;0.52;0.20;;;25.90;51.10;;;;;;5009011;28;20125;-53
2021/08/18 08:22:33;;;;;;;2.33;0.43;;;25.90;51.00;;;;;;5011520;28;20049;-56
2021/08/18 08:25:00;;;;;;;0.43;0.43;;;25.90;50.80;;;;;;5011515;28;20052;-55
2021/08/18 08:27:27;;;;;;;1.70;0.20;;;26.00;50.80;;;;;;5011701;28;20117;-57
2021/08/18 08:29:53;;;;;;;0.98;0.38;;;26.00;50.70;;;;;;5011771;28;20038;-56
2021/08/18 08:32:21;;;;;;;1.10;0.15;;;26.10;50.60;;;;;;5009240;28;20054;-54
2021/08/18 08:34:48;;;;;;;0.73;0.20;;;26.10;50.50;;;;;;5013637;28;20569;-53
2021/08/18 08:37:17;;;;;;;0.70;0.20;;;26.10;50.30;;;;;;5011191;28;20046;-51
2021/08/18 08:39:46;;;;;;;0.43;0.10;;;26.20;50.30;;;;;;5011611;28;20048;-53
2021/08/18 08:42:15;;;;;;;0.95;0.38;;;26.20;50.30;;;;;;5013452;28;20046;-54
2021/08/18 08:44:42;;;;;;;1.08;0.10;;;26.20;50.10;;;;;;5012058;28;20061;-56
2021/08/18 08:47:10;;;;;;;0.55;0.20;;;26.20;50.10;;;;;;5011957;28;20128;-52
2021/08/18 08:49:38;;;;;;;0.75;0.20;;;26.20;49.90;;;;;;5011762;28;20052;-55
2021/08/18 08:52:06;;;;;;;1.25;0.20;;;26.20;50.40;;;;;;5011050;28;20053;-53
2021/08/18 08:54:33;;;;;;;0.25;0.10;;;26.30;49.80;;;;;;5012448;28;20076;-53
2021/08/18 08:57:01;;;;;;;0.25;0.10;;;26.30;49.70;;;;;;5022275;28;20070;-54
2021/08/18 08:59:28;;;;;;;1.55;0.43;;;26.30;49.60;;;;;;5024890;28;20566;-56
2021/08/18 09:02:06;;;;;;;1.02;0.17;;;26.30;49.60;;;;;;5009860;28;20142;-56
2021/08/18 09:04:35;;;;;;;1.58;0.30;;;26.40;49.50;;;;;;5011659;28;20053;-55
2021/08/18 09:07:10;;;;;;;0.45;0.40;;;26.40;49.50;;;;;;5011287;28;20044;-58
2021/08/18 09:09:39;;;;;;;1.92;1.15;;;26.40;49.40;;;;;;5012923;28;20144;-53
2021/08/18 09:12:09;;;;;;;2.78;1.67;;;26.40;49.30;;;;;;5021549;28;20453;-56
2021/08/18 09:14:37;;;;;;;2.65;2.33;;;26.40;49.30;;;;;;5015212;28;20136;-55
2021/08/18 09:17:28;;;;;;;3.47;3.15;;;26.50;49.30;;;;;;5027832;28;20128;-56
2021/08/18 09:20:03;;;;;;;4.03;3.78;;;26.50;49.20;;;;;;5013459;28;20054;-55
2021/08/18 09:22:31;;;;;;;4.70;4.03;;;26.50;49.20;;;;;;5012608;28;20489;-55
2021/08/18 09:25:16;;;;;;;6.00;5.28;;;26.50;49.10;;;;;;5014955;28;20040;-57
2021/08/18 09:27:47;;;;;;;8.33;5.20;;;26.60;49.10;;;;;;5014534;28;20045;-56
2021/08/18 09:30:20;;;;;;;6.57;5.43;;;26.50;49.00;;;;;;5013782;28;20300;-54
2021/08/18 09:32:47;;;;;;;6.63;5.53;;;26.60;49.00;;;;;;5014852;28;20120;-57
2021/08/18 09:35:17;;;;;;;6.88;6.07;;;26.60;49.00;;;;;;5011992;28;20704;-54
2021/08/18 09:37:46;;;;;;;6.10;5.30;;;26.60;48.90;;;;;;5015823;28;20034;-55
2021/08/18 09:40:18;;;;;;;5.63;4.78;;;26.60;48.80;;;;;;5014833;28;20065;-56
2021/08/18 09:42:47;;;;;;;8.10;6.30;;;26.70;48.80;;;;;;5015210;28;20041;-55
2021/08/18 09:45:17;;;;;;;7.25;6.45;;;26.70;48.70;;;;;;5014354;28;20050;-52
2021/08/18 09:47:57;;;;;;;13.90;7.63;;;26.70;48.70;;;;;;5011911;28;20092;-54
2021/08/18 09:50:25;;;;;;;13.63;9.90;;;26.70;48.60;;;;;;5028692;28;20104;-53
2021/08/18 09:52:54;;;;;;;11.30;9.50;;;26.70;48.60;;;;;;5012778;28;20100;-53
2021/08/18 09:55:25;;;;;;;15.85;10.38;;;26.70;48.50;;;;;;5014206;28;20507;-58
2021/08/18 09:57:53;;;;;;;12.93;11.05;;;26.70;48.50;;;;;;5014311;28;20122;-57
2021/08/18 10:00:20;;;;;;;13.73;10.40;;;26.70;48.40;;;;;;5013756;28;20447;-55
2021/08/18 10:02:48;;;;;;;10.85;9.68;;;26.70;48.40;;;;;;5024155;28;20045;-55
2021/08/18 10:05:15;;;;;;;13.20;9.98;;;26.70;48.40;;;;;;5011276;28;20041;-57
2021/08/18 10:07:42;;;;;;;10.65;9.07;;;26.80;48.30;;;;;;5018398;28;20068;-56
2021/08/18 10:10:10;;;;;;;10.40;7.88;;;26.80;48.30;;;;;;5014221;28;20026;-54
2021/08/18 10:12:37;;;;;;;9.07;7.13;;;26.80;48.40;;;;;;5015500;28;20155;-53
2021/08/18 10:15:07;;;;;;;10.40;7.22;;;26.80;48.30;;;;;;5013631;28;20519;-57
2021/08/18 10:17:41;;;;;;;8.70;7.05;;;26.80;48.20;;;;;;5013205;28;20079;-54
2021/08/18 10:20:10;;;;;;;8.05;6.28;;;26.90;48.20;;;;;;5026874;28;20420;-51
2021/08/18 10:22:38;;;;;;;6.85;5.40;;;26.80;48.10;;;;;;5024517;28;20033;-56
2021/08/18 10:25:48;;;;;;;5.38;4.88;;;26.90;48.10;;;;;;5015688;28;20112;-54
2021/08/18 10:28:17;;;;;;;6.78;5.38;;;26.90;48.00;;;;;;5020642;28;20435;-55
2021/08/18 10:30:53;;;;;;;6.38;5.05;;;26.90;48.10;;;;;;5022939;28;20034;-56
2021/08/18 10:33:57;;;;;;;4.95;4.50;;;26.90;48.60;;;;;;5023242;28;20050;-54
2021/08/18 10:37:01;;;;;;;6.38;4.20;;;26.90;47.90;;;;;;5013581;28;20440;-55
2021/08/18 10:39:30;;;;;;;5.65;3.92;;;26.90;47.90;;;;;;5013832;28;20050;-55
2021/08/18 10:41:58;;;;;;;3.22;2.90;;;26.90;47.90;;;;;;5022948;28;20127;-53
2021/08/18 10:44:34;;;;;;;4.28;3.83;;;26.90;47.90;;;;;;5027267;28;20037;-56
2021/08/18 10:47:24;;;;;;;3.78;2.72;;;27.00;47.90;;;;;;5026074;28;20041;-54
2021/08/18 10:49:52;;;;;;;2.38;2.20;;;27.00;47.80;;;;;;5012099;28;20042;-53
2021/08/18 10:52:53;;;;;;;2.65;2.42;;;27.00;47.90;;;;;;5013005;28;20133;-54
2021/08/18 10:55:31;;;;;;;3.60;2.33;;;27.10;47.80;;;;;;5012819;28;20053;-54
2021/08/18 10:57:58;;;;;;;2.10;1.85;;;27.00;47.70;;;;;;5012493;28;20041;-54
2021/08/18 11:00:34;;;;;;;1.60;1.50;;;27.00;47.70;;;;;;5013059;28;20126;-55
2021/08/18 11:03:04;;;;;;;2.58;1.63;;;27.10;47.70;;;;;;5013158;28;20056;-50
2021/08/18 11:05:48;;;;;;;4.40;1.73;;;27.10;47.70;;;;;;5012035;28;20124;-55
2021/08/18 11:08:17;;;;;;;1.70;1.23;;;27.10;47.70;;;;;;5025648;28;20049;-56
2021/08/18 11:11:14;;;;;;;1.52;1.08;;;27.10;47.60;;;;;;5023104;28;20041;-54
2021/08/18 11:13:44;;;;;;;0.63;0.63;;;27.10;47.50;;;;;;5024583;28;20046;-53
2021/08/18 11:16:13;;;;;;;3.03;1.17;;;27.10;47.60;;;;;;5015481;28;20042;-52
2021/08/18 11:18:53;;;;;;;0.93;0.75;;;27.10;47.50;;;;;;5011662;28;20046;-55
2021/08/18 11:21:27;;;;;;;0.95;0.85;;;27.20;47.50;;;;;;5012435;28;20070;-55
2021/08/18 11:23:58;;;;;;;0.82;0.55;;;27.20;47.50;;;;;;5010638;28;20041;-53
2021/08/18 11:26:27;;;;;;;0.40;0.40;;;27.20;47.50;;;;;;5026254;28;20058;-52
2021/08/18 11:29:05;;;;;;;0.60;0.60;;;27.20;47.40;;;;;;5011528;28;20053;-55
2021/08/18 11:31:42;;;;;;;1.08;0.43;;;27.20;47.40;;;;;;5020314;28;20505;-54
2021/08/18 11:34:22;;;;;;;0.63;0.50;;;27.20;47.30;;;;;;5024145;28;20578;-54
2021/08/18 11:36:51;;;;;;;4.47;0.50;;;27.20;47.30;;;;;;5017789;28;20048;-55
2021/08/18 11:39:18;;;;;;;1.33;0.65;;;27.30;47.30;;;;;;5013104;28;20056;-52
2021/08/18 11:41:47;;;;;;;0.73;0.60;;;27.30;47.30;;;;;;5014052;28;20042;-55
2021/08/18 11:44:26;;;;;;;0.77;0.43;;;27.30;47.20;;;;;;5008891;28;20054;-56
2021/08/18 11:46:54;;;;;;;2.05;0.68;;;27.30;47.10;;;;;;5014072;28;20132;-54
2021/08/18 11:49:26;;;;;;;1.10;0.60;;;27.30;47.10;;;;;;5012186;28;20044;-56
2021/08/18 11:51:54;;;;;;;1.23;0.77;;;27.30;47.10;;;;;;5012224;28;20121;-55
2021/08/18 11:54:23;;;;;;;2.00;0.70;;;27.30;47.10;;;;;;5010880;28;20048;-55
2021/08/18 11:57:00;;;;;;;1.15;0.65;;;27.30;47.00;;;;;;5025382;28;20053;-52
2021/08/18 11:59:28;;;;;;;1.77;0.70;;;27.40;47.00;;;;;;5010034;28;20041;-54
2021/08/18 12:01:56;;;;;;;4.70;0.82;;;27.40;47.00;;;;;;5023643;28;20077;-55
2021/08/18 12:04:26;;;;;;;4.28;1.55;;;27.40;47.00;;;;;;5020494;28;20107;-54
2021/08/18 12:07:08;;;;;;;2.97;0.90;;;27.40;46.90;;;;;;5017693;28;20056;-56
2021/08/18 12:09:35;;;;;;;3.85;1.15;;;27.40;46.90;;;;;;5019239;28;20120;-56
2021/08/18 12:12:07;;;;;;;6.10;1.80;;;27.40;46.90;;;;;;5014363;28;20043;-54
2021/08/18 12:14:39;;;;;;;4.78;1.95;;;27.40;46.80;;;;;;5010381;28;20060;-55
2021/08/18 12:17:07;;;;;;;8.82;3.30;;;27.50;46.90;;;;;;5023734;28;20056;-54
2021/08/18 12:19:38;;;;;;;6.03;2.47;;;27.40;46.80;;;;;;5008256;28;20045;-53
2021/08/18 12:22:11;;;;;;;11.45;4.32;;;27.50;46.80;;;;;;5010080;28;20129;-55
2021/08/18 12:24:39;;;;;;;10.80;4.28;;;27.50;46.80;;;;;;5010306;28;20038;-56
2021/08/18 12:27:08;;;;;;;13.45;4.22;;;27.40;46.70;;;;;;5012665;28;20042;-55
2021/08/18 12:29:37;;;;;;;13.43;4.18;;;27.50;46.80;;;;;;5011305;28;20041;-54
2021/08/18 12:32:07;;;;;;;17.52;4.88;;;27.50;46.70;;;;;;5009778;28;20392;-50
2021/08/18 12:34:39;;;;;;;18.95;5.35;;;27.50;46.70;;;;;;5013789;28;20053;-54
2021/08/18 12:37:09;;;;;;;14.80;6.03;;;27.50;46.70;;;;;;5010306;28;20056;-56
2021/08/18 12:39:41;;;;;;;15.90;5.65;;;27.50;46.70;;;;;;5012540;28;20044;-55
2021/08/18 12:42:09;;;;;;;15.73;6.47;;;27.50;47.30;;;;;;5023059;28;20042;-57
2021/08/18 12:44:38;;;;;;;11.70;6.95;;;27.50;46.60;;;;;;5011342;28;20125;-54
2021/08/18 12:47:11;;;;;;;14.93;7.57;;;27.50;46.60;;;;;;5011298;28;20053;-54
2021/08/18 12:49:48;;;;;;;13.32;6.82;;;27.50;46.70;;;;;;5012392;28;20038;-55
2021/08/18 12:52:16;;;;;;;17.80;8.77;;;27.50;46.60;;;;;;5011111;28;20127;-55
2021/08/18 12:54:44;;;;;;;16.75;9.93;;;27.50;46.70;;;;;;5014282;28;20088;-54